createdAt,value
2022-08-05T00:00:28.756Z,55.25
2022-08-05T00:03:03.868Z,55.28
2022-08-05T00:06:05.003Z,55.00
2022-08-05T00:08:34.879Z,56.37
2022-08-05T00:11:23.811Z,56.12
2022-08-05T00:14:02.193Z,55.11
2022-08-05T00:16:36.150Z,55.29
2022-08-05T00:19:07.384Z,56.52
2022-08-05T00:21:37.399Z,56.49
2022-08-05T00:24:18.906Z,56.72
2022-08-05T00:26:57.452Z,56.68
2022-08-05T00:29:37.661Z,57.13
2022-08-05T00:32:15.280Z,56.76
2022-08-05T00:35:03.424Z,56.65
2022-08-05T00:37:53.045Z,56.29
2022-08-05T00:40:29.644Z,55.89
2022-08-05T00:43:07.811Z,57.33
2022-08-05T00:45:43.774Z,56.89
2022-08-05T00:48:31.240Z,56.99
2022-08-05T00:51:08.957Z,57.17
2022-08-05T00:54:02.294Z,58.44
2022-08-05T00:56:32.783Z,58.04
2022-08-05T00:59:06.996Z,58.21
2022-08-05T01:01:48.182Z,57.23
2022-08-05T01:04:20.400Z,57.33
2022-08-05T01:06:56.811Z,57.66
2022-08-05T01:09:27.385Z,58.50
2022-08-05T01:12:09.381Z,57.92
2022-08-05T01:14:54.846Z,58.16
2022-08-05T01:17:30.719Z,58.22
2022-08-05T01:20:28.496Z,59.35
2022-08-05T01:23:14.993Z,59.96
2022-08-05T01:26:02.291Z,59.55
2022-08-05T01:28:39.939Z,57.75
2022-08-05T01:31:15.059Z,56.47
2022-08-05T01:33:51.947Z,55.88
2022-08-05T01:36:28.310Z,55.19
2022-08-05T01:39:01.026Z,54.70
2022-08-05T01:41:35.522Z,53.31
2022-08-05T01:44:11.167Z,52.63
2022-08-05T01:46:46.321Z,53.04
2022-08-05T01:49:23.996Z,53.38
2022-08-05T01:51:59.051Z,52.77
2022-08-05T01:54:34.991Z,52.68
2022-08-05T01:58:10.132Z,52.85
2022-08-05T02:00:14.384Z,53.36
2022-08-05T02:02:53.703Z,53.19
2022-08-05T02:05:28.633Z,53.00
2022-08-05T02:08:01.275Z,54.03
2022-08-05T02:10:37.661Z,53.42
2022-08-05T02:13:16.186Z,53.72
2022-08-05T02:15:56.798Z,53.50
2022-08-05T02:18:35.244Z,53.53
2022-08-05T02:21:15.134Z,54.00
2022-08-05T02:23:48.426Z,53.78
2022-08-05T02:26:30.253Z,54.01
2022-08-05T02:29:01.123Z,53.77
2022-08-05T02:31:38.577Z,54.33
2022-08-05T02:34:11.964Z,54.62
2022-08-05T02:36:45.653Z,54.45
2022-08-05T02:39:21.402Z,55.20
2022-08-05T02:42:00.475Z,55.98
2022-08-05T02:44:32.909Z,55.48
2022-08-05T02:47:08.038Z,55.29
2022-08-05T02:49:40.539Z,54.54
2022-08-05T02:52:13.666Z,54.53
2022-08-05T02:55:05.532Z,54.49
2022-08-05T02:58:11.377Z,54.18
2022-08-05T03:00:33.346Z,54.57
2022-08-05T03:03:10.171Z,54.42
2022-08-05T03:06:56.562Z,55.66
2022-08-05T03:08:32.934Z,56.08
2022-08-05T03:11:55.598Z,55.71
2022-08-05T03:14:03.124Z,56.46
2022-08-05T03:16:33.266Z,57.70
2022-08-05T03:19:17.263Z,57.12
2022-08-05T03:21:58.526Z,58.22
2022-08-05T03:24:30.802Z,59.22
2022-08-05T03:27:01.509Z,58.10
2022-08-05T03:29:45.734Z,58.54
2022-08-05T03:32:22.243Z,60.47
2022-08-05T03:35:04.460Z,59.36
2022-08-05T03:37:45.822Z,59.72
2022-08-05T03:40:31.379Z,58.83
2022-08-05T03:43:58.603Z,58.50
2022-08-05T03:45:57.469Z,60.41
2022-08-05T03:48:29.245Z,60.12
2022-08-05T03:52:37.445Z,59.38
2022-08-05T03:54:59.986Z,60.12
2022-08-05T03:56:52.657Z,61.50
2022-08-05T03:59:29.273Z,62.08
2022-08-05T04:02:39.140Z,62.65
2022-08-05T04:05:13.685Z,62.20
2022-08-05T04:07:57.771Z,63.07
2022-08-05T04:10:35.805Z,62.42
2022-08-05T04:13:09.118Z,63.28
2022-08-05T04:15:38.992Z,63.67
2022-08-05T04:18:26.146Z,63.84
2022-08-05T04:20:57.600Z,61.96
2022-08-05T04:24:04.716Z,63.28
2022-08-05T04:26:20.814Z,63.35
2022-08-05T04:28:52.102Z,62.93
2022-08-05T04:31:22.034Z,61.41
2022-08-05T04:34:31.306Z,62.95
2022-08-05T04:36:50.266Z,62.99
2022-08-05T04:39:23.509Z,62.63
2022-08-05T04:41:54.676Z,63.52
2022-08-05T04:44:29.651Z,63.29
2022-08-05T04:47:00.165Z,64.43
2022-08-05T04:50:01.623Z,64.98
2022-08-05T04:52:29.514Z,63.72
2022-08-05T04:55:14.612Z,64.63
2022-08-05T04:57:48.027Z,63.65
2022-08-05T05:00:23.311Z,64.13
2022-08-05T05:02:53.489Z,64.34
2022-08-05T05:05:28.124Z,65.57
2022-08-05T05:08:02.707Z,63.89
2022-08-05T05:10:42.138Z,63.50
2022-08-05T05:13:25.735Z,63.42
2022-08-05T05:16:05.973Z,63.73
2022-08-05T05:18:36.763Z,65.34
2022-08-05T05:21:06.780Z,63.83
2022-08-05T05:24:01.758Z,63.34
2022-08-05T05:26:32.734Z,62.94
2022-08-05T05:29:14.472Z,62.45
2022-08-05T05:31:46.390Z,62.18
2022-08-05T05:34:21.204Z,62.04
2022-08-05T05:36:56.345Z,60.96
2022-08-05T05:39:31.551Z,59.82
2022-08-05T05:42:07.554Z,58.92
2022-08-05T05:44:44.427Z,58.93
2022-08-05T05:47:30.257Z,57.63
2022-08-05T05:50:06.311Z,57.79
2022-08-05T05:52:38.137Z,58.65
2022-08-05T05:55:13.641Z,58.45
2022-08-05T05:57:52.154Z,58.08
2022-08-05T06:00:31.459Z,58.47
2022-08-05T06:03:39.671Z,58.85
2022-08-05T06:05:55.550Z,59.35
2022-08-05T06:08:31.645Z,58.82
2022-08-05T06:11:02.822Z,58.70
2022-08-05T06:13:40.811Z,58.23
2022-08-05T06:16:29.541Z,56.61
2022-08-05T06:19:05.429Z,54.36
2022-08-05T06:21:38.679Z,54.28
2022-08-05T06:24:12.853Z,54.96
2022-08-05T06:26:51.425Z,55.26
2022-08-05T06:29:49.594Z,55.66
2022-08-05T06:32:26.091Z,55.05
2022-08-05T06:34:59.698Z,54.58
2022-08-05T06:37:56.546Z,54.35
2022-08-05T06:40:27.933Z,54.17
2022-08-05T06:42:57.783Z,53.29
2022-08-05T06:45:44.753Z,53.12
2022-08-05T06:48:50.403Z,52.81
2022-08-05T06:51:12.042Z,53.87
2022-08-05T06:53:53.832Z,53.63
2022-08-05T06:56:26.768Z,53.93
2022-08-05T06:58:56.787Z,53.19
2022-08-05T07:01:32.591Z,52.52
2022-08-05T07:04:03.141Z,52.05
2022-08-05T07:06:33.748Z,52.68
2022-08-05T07:09:04.729Z,51.58
2022-08-05T07:11:36.950Z,51.01
2022-08-05T07:14:20.735Z,51.49
2022-08-05T07:17:58.406Z,50.98
2022-08-05T07:22:43.980Z,50.95
2022-08-05T07:25:54.103Z,51.37
2022-08-05T07:28:08.290Z,51.70
2022-08-05T07:30:41.446Z,51.69
2022-08-05T07:33:17.219Z,50.50
2022-08-05T07:36:01.813Z,49.90
2022-08-05T07:38:43.270Z,49.71
2022-08-05T07:41:35.183Z,49.97
2022-08-05T07:44:14.410Z,49.60
2022-08-05T07:46:50.015Z,50.04
2022-08-05T07:49:22.684Z,49.28
2022-08-05T07:51:54.194Z,47.88
2022-08-05T07:54:31.305Z,47.85
2022-08-05T07:57:18.050Z,47.61
2022-08-05T07:59:54.298Z,48.03
2022-08-05T08:02:31.233Z,47.58
2022-08-05T08:05:21.352Z,47.09
2022-08-05T08:07:59.953Z,47.65
2022-08-05T08:10:30.545Z,46.16
2022-08-05T08:13:01.623Z,46.28
2022-08-05T08:16:33.366Z,46.25
2022-08-05T08:18:21.378Z,45.24
2022-08-05T08:21:01.907Z,44.58
2022-08-05T08:24:01.606Z,44.75
2022-08-05T08:26:26.914Z,43.96
2022-08-05T08:29:21.712Z,43.28
2022-08-05T08:31:49.361Z,43.08
2022-08-05T08:34:19.033Z,42.42
2022-08-05T08:37:05.057Z,42.40
2022-08-05T08:39:37.695Z,42.67
2022-08-05T08:42:32.535Z,42.44
2022-08-05T08:45:23.212Z,41.03
2022-08-05T08:48:11.719Z,41.68
2022-08-05T08:51:03.116Z,40.66
2022-08-05T08:53:40.243Z,40.31
2022-08-05T08:56:15.134Z,40.36
2022-08-05T08:58:47.987Z,40.34
2022-08-05T09:01:19.762Z,40.22
2022-08-05T09:03:55.333Z,40.31
2022-08-05T09:06:30.092Z,40.45
2022-08-05T09:09:04.205Z,40.05
2022-08-05T09:11:51.111Z,39.17
2022-08-05T09:14:57.620Z,39.25
2022-08-05T09:17:40.105Z,39.58
2022-08-05T09:20:05.969Z,38.77
2022-08-05T09:23:09.467Z,38.27
2022-08-05T09:25:59.992Z,37.41
2022-08-05T09:28:33.742Z,38.30
2022-08-05T09:31:43.824Z,37.58
2022-08-05T09:33:59.333Z,37.93
2022-08-05T09:36:53.920Z,36.98
2022-08-05T09:39:39.179Z,36.42
2022-08-05T09:42:24.039Z,37.15
2022-08-05T09:45:17.468Z,37.72
2022-08-05T09:47:56.117Z,36.94
2022-08-05T09:50:44.247Z,36.61
2022-08-05T09:53:25.840Z,37.24
2022-08-05T09:56:03.989Z,37.11
2022-08-05T09:58:37.403Z,36.88
2022-08-05T10:01:31.937Z,36.78
2022-08-05T10:04:10.540Z,36.44
2022-08-05T10:06:49.954Z,36.58
2022-08-05T10:09:28.077Z,36.49
2022-08-05T10:12:30.238Z,36.28
2022-08-05T10:15:34.309Z,35.60
2022-08-05T10:18:16.642Z,34.94
2022-08-05T10:20:49.630Z,35.24
2022-08-05T10:23:55.209Z,34.20
2022-08-05T10:26:13.953Z,34.97
2022-08-05T10:28:46.200Z,34.77
2022-08-05T10:32:50.847Z,34.27
2022-08-05T10:34:11.182Z,35.01
2022-08-05T10:36:42.910Z,34.26
2022-08-05T10:39:25.038Z,33.87
2022-08-05T10:42:14.980Z,32.99
2022-08-05T10:44:49.047Z,32.68
2022-08-05T10:47:25.958Z,33.53
2022-08-05T10:50:33.061Z,32.88
2022-08-05T10:53:01.791Z,32.24
2022-08-05T10:55:32.870Z,32.21
2022-08-05T10:58:22.537Z,31.61
2022-08-05T11:01:12.198Z,32.38
2022-08-05T11:04:03.218Z,32.58
2022-08-05T11:07:00.548Z,31.92
2022-08-05T11:09:46.091Z,31.15
2022-08-05T11:12:54.208Z,31.69
2022-08-05T11:16:01.194Z,32.26
2022-08-05T11:18:32.425Z,32.04
2022-08-05T11:21:11.463Z,31.98
2022-08-05T11:24:03.947Z,31.55
2022-08-05T11:26:43.369Z,32.34
2022-08-05T11:29:47.181Z,32.19
2022-08-05T11:32:28.517Z,31.86
2022-08-05T11:34:58.873Z,31.39
2022-08-05T11:38:30.794Z,31.51
2022-08-05T11:41:34.500Z,30.91
2022-08-05T11:44:07.535Z,30.63
2022-08-05T11:47:10.171Z,30.96
2022-08-05T11:49:29.407Z,31.56
2022-08-05T11:52:11.364Z,31.53
2022-08-05T11:54:43.631Z,31.44
2022-08-05T11:57:39.296Z,30.50
2022-08-05T12:00:38.020Z,31.21
2022-08-05T12:03:31.620Z,32.02
2022-08-05T12:06:10.007Z,31.23
2022-08-05T12:08:50.911Z,32.24
2022-08-05T12:11:23.186Z,32.10
2022-08-05T12:13:58.694Z,32.61
2022-08-05T12:16:39.331Z,31.74
2022-08-05T12:19:11.011Z,32.16
2022-08-05T12:22:01.283Z,31.59
2022-08-05T12:24:31.108Z,31.14
2022-08-05T12:27:00.947Z,31.10
2022-08-05T12:29:40.166Z,31.76
2022-08-05T12:32:12.614Z,30.84
2022-08-05T12:34:42.574Z,31.31
2022-08-05T12:37:17.297Z,31.41
2022-08-05T12:39:51.095Z,32.00
2022-08-05T12:42:25.344Z,32.71
2022-08-05T12:44:55.262Z,32.90
2022-08-05T12:47:34.290Z,33.78
2022-08-05T12:50:15.150Z,33.64
2022-08-05T12:52:45.877Z,32.65
2022-08-05T12:55:22.792Z,32.21
2022-08-05T12:58:38.452Z,33.00
2022-08-05T13:01:59.712Z,34.13
2022-08-05T13:03:43.297Z,34.71
2022-08-05T13:06:18.328Z,34.97
2022-08-05T13:08:52.245Z,34.69
2022-08-05T13:11:59.982Z,33.82
2022-08-05T13:14:24.793Z,34.19
2022-08-05T13:17:11.048Z,33.76
2022-08-05T13:19:52.633Z,33.78
2022-08-05T13:22:28.184Z,34.81
2022-08-05T13:25:05.231Z,34.63
2022-08-05T13:27:39.035Z,34.37
2022-08-05T13:30:34.013Z,34.33
2022-08-05T13:33:02.163Z,34.29
2022-08-05T13:35:46.974Z,33.98
2022-08-05T13:38:30.809Z,33.41
2022-08-05T13:41:03.876Z,32.85
2022-08-05T13:43:44.246Z,31.46
2022-08-05T13:46:50.820Z,32.36
2022-08-05T13:49:11.682Z,31.66
2022-08-05T13:51:46.198Z,32.07
2022-08-05T13:54:17.183Z,32.19
2022-08-05T13:56:52.026Z,31.94
2022-08-05T13:59:24.060Z,32.79
2022-08-05T14:01:56.384Z,31.69
2022-08-05T14:04:40.956Z,31.91
2022-08-05T14:07:56.442Z,32.10
2022-08-05T14:10:04.584Z,31.63
2022-08-05T14:12:38.203Z,31.14
2022-08-05T14:16:05.346Z,32.30
2022-08-05T14:18:00.726Z,32.03
2022-08-05T14:20:30.958Z,32.38
2022-08-05T14:23:03.653Z,32.51
2022-08-05T14:25:33.344Z,32.78
2022-08-05T14:28:03.503Z,33.21
2022-08-05T14:30:33.233Z,33.52
2022-08-05T14:33:04.771Z,33.93
2022-08-05T14:35:36.266Z,34.14
2022-08-05T14:38:32.655Z,34.24
2022-08-05T14:41:07.859Z,34.82
2022-08-05T14:44:00.194Z,35.50
2022-08-05T14:46:30.802Z,35.25
2022-08-05T14:49:03.490Z,35.52
2022-08-05T14:51:38.020Z,35.90
2022-08-05T14:54:30.132Z,35.94
2022-08-05T14:57:05.071Z,37.04
2022-08-05T14:59:35.376Z,38.53
2022-08-05T15:02:15.865Z,39.47
2022-08-05T15:04:47.860Z,40.22
2022-08-05T15:08:12.300Z,40.70
2022-08-05T15:10:12.131Z,41.22
2022-08-05T15:13:00.455Z,41.82
2022-08-05T15:15:54.867Z,41.93
2022-08-05T15:18:21.692Z,42.88
2022-08-05T15:20:51.388Z,42.94
2022-08-05T15:23:21.231Z,43.09
2022-08-05T15:25:55.916Z,43.48
2022-08-05T15:28:28.235Z,43.73
2022-08-05T15:30:59.639Z,44.57
2022-08-05T15:34:05.113Z,45.67
2022-08-05T15:36:24.141Z,59.36
2022-08-05T15:40:41.534Z,61.46
2022-08-05T15:41:58.441Z,62.89
2022-08-05T15:44:30.129Z,59.49
2022-08-05T15:47:00.531Z,61.00
2022-08-05T15:49:55.173Z,62.73
2022-08-05T15:52:29.509Z,58.35
2022-08-05T15:55:15.446Z,59.48
2022-08-05T15:57:49.101Z,60.37
2022-08-05T16:00:26.358Z,60.59
2022-08-05T16:03:09.289Z,58.84
2022-08-05T16:05:39.350Z,58.72
2022-08-05T16:08:11.557Z,56.84
2022-08-05T16:10:45.823Z,57.24
2022-08-05T16:13:23.590Z,58.05
2022-08-05T16:15:53.987Z,59.96
2022-08-05T16:18:28.058Z,58.81
2022-08-05T16:21:00.074Z,58.58
2022-08-05T16:23:53.167Z,58.57
2022-08-05T16:26:26.535Z,57.67
2022-08-05T16:28:59.328Z,56.84
2022-08-05T16:31:56.089Z,56.12
2022-08-05T16:34:18.787Z,57.30
2022-08-05T16:36:48.579Z,56.18
2022-08-05T16:39:18.812Z,53.89
2022-08-05T16:42:13.585Z,52.62
2022-08-05T16:44:42.735Z,52.90
2022-08-05T16:47:28.682Z,52.47
2022-08-05T16:50:03.765Z,52.52
2022-08-05T16:52:33.814Z,52.89
2022-08-05T16:55:04.191Z,52.16
2022-08-05T16:57:48.631Z,51.31
2022-08-05T17:00:34.570Z,51.12
2022-08-05T17:03:09.295Z,52.70
2022-08-05T17:05:53.892Z,52.11
2022-08-05T17:08:36.041Z,51.57
2022-08-05T17:11:18.748Z,51.29
2022-08-05T17:13:49.202Z,53.09
2022-08-05T17:16:32.842Z,52.60
2022-08-05T17:19:03.642Z,53.09
2022-08-05T17:21:37.749Z,52.88
2022-08-05T17:24:28.123Z,53.57
2022-08-05T17:27:01.196Z,53.13
2022-08-05T17:29:33.485Z,53.62
2022-08-05T17:32:17.093Z,54.82
2022-08-05T17:34:49.263Z,54.15
2022-08-05T17:37:39.800Z,54.32
2022-08-05T17:40:12.769Z,53.61
2022-08-05T17:42:51.882Z,53.13
2022-08-05T17:45:37.909Z,53.94
2022-08-05T17:48:11.264Z,53.67
2022-08-05T17:50:41.029Z,53.85
2022-08-05T17:53:11.086Z,53.71
2022-08-05T17:55:41.486Z,53.94
2022-08-05T17:58:13.530Z,54.26
2022-08-05T18:00:47.438Z,55.04
2022-08-05T18:06:15.309Z,55.22
2022-08-05T18:08:52.443Z,55.12
2022-08-05T18:11:32.922Z,53.96
2022-08-05T18:14:07.347Z,55.04
2022-08-05T18:16:47.023Z,55.21
2022-08-05T18:19:25.832Z,55.53
2022-08-05T18:22:08.806Z,57.14
2022-08-05T18:24:41.086Z,57.57
2022-08-05T18:27:12.482Z,59.23
2022-08-05T18:29:42.393Z,60.08
2022-08-05T18:32:20.282Z,60.58
2022-08-05T18:34:52.536Z,60.75
2022-08-05T18:37:34.458Z,61.84
2022-08-05T18:40:34.071Z,61.77
2022-08-05T18:43:01.048Z,61.92
2022-08-05T18:45:41.326Z,62.29
2022-08-05T18:48:11.984Z,61.28
2022-08-05T18:52:06.151Z,61.44
2022-08-05T18:54:05.657Z,62.07
2022-08-05T18:56:35.348Z,62.74
2022-08-05T18:59:41.988Z,62.00
2022-08-05T19:01:57.909Z,62.61
2022-08-05T19:04:29.470Z,62.91
2022-08-05T19:07:01.725Z,62.44
2022-08-05T19:09:39.037Z,62.52
2022-08-05T19:12:11.430Z,63.81
2022-08-05T19:15:00.644Z,63.48
2022-08-05T19:17:59.605Z,63.62
2022-08-05T19:20:21.818Z,64.22
2022-08-05T19:22:56.031Z,64.03
2022-08-05T19:25:30.098Z,63.54
2022-08-05T19:28:00.920Z,63.73
2022-08-05T19:30:30.657Z,64.36
2022-08-05T19:33:00.323Z,64.17
2022-08-05T19:35:55.915Z,64.50
2022-08-05T19:38:26.697Z,64.10
2022-08-05T19:40:56.550Z,64.56
2022-08-05T19:44:04.208Z,64.38
2022-08-05T19:46:16.726Z,64.22
2022-08-05T19:49:01.110Z,64.38
2022-08-05T19:52:04.551Z,65.07
2022-08-05T19:54:30.946Z,63.54
2022-08-05T19:57:02.140Z,63.76
2022-08-05T19:59:56.102Z,63.64
2022-08-05T20:02:22.827Z,63.83
2022-08-05T20:04:52.839Z,63.59
2022-08-05T20:07:48.237Z,63.57
2022-08-05T20:10:14.984Z,63.81
2022-08-05T20:12:46.408Z,63.82
2022-08-05T20:15:48.177Z,63.96
2022-08-05T20:18:10.602Z,64.19
2022-08-05T20:20:59.859Z,65.48
2022-08-05T20:23:40.656Z,67.27
2022-08-05T20:26:24.756Z,68.21
2022-08-05T20:29:00.502Z,69.45
2022-08-05T20:31:43.112Z,69.05
2022-08-05T20:34:21.035Z,69.32
2022-08-05T20:36:50.757Z,71.39
2022-08-05T20:39:21.054Z,72.47
2022-08-05T20:41:53.527Z,74.41
2022-08-05T20:44:31.128Z,76.66
2022-08-05T20:47:03.211Z,78.94
2022-08-05T20:49:39.450Z,79.22
2022-08-05T20:52:12.325Z,79.56
2022-08-05T20:54:58.903Z,80.22
2022-08-05T20:57:43.212Z,81.34
2022-08-05T21:00:35.048Z,81.93
2022-08-05T21:03:08.199Z,82.00
2022-08-05T21:05:54.250Z,83.61
2022-08-05T21:08:26.604Z,83.30
2022-08-05T21:11:10.073Z,83.34
2022-08-05T21:13:55.612Z,82.99
2022-08-05T21:16:29.713Z,82.14
2022-08-05T21:19:01.081Z,82.47
2022-08-05T21:21:44.216Z,82.80
2022-08-05T21:24:20.473Z,83.06
2022-08-05T21:26:53.517Z,83.18
2022-08-05T21:29:31.687Z,83.16
2022-08-05T21:32:02.169Z,85.59
2022-08-05T21:34:32.940Z,85.84
2022-08-05T21:37:05.220Z,84.83
2022-08-05T21:39:40.393Z,85.54
2022-08-05T21:42:30.620Z,85.46
2022-08-05T21:45:03.507Z,85.54
2022-08-05T21:47:55.656Z,84.37
2022-08-05T21:50:23.774Z,85.18
2022-08-05T21:52:53.547Z,83.04
2022-08-05T21:55:42.891Z,82.10
2022-08-05T21:58:13.289Z,81.31
2022-08-05T22:00:51.453Z,79.78
2022-08-05T22:03:48.905Z,80.74
2022-08-05T22:06:11.299Z,79.12
2022-08-05T22:08:42.534Z,78.29
2022-08-05T22:11:15.739Z,78.50
2022-08-05T22:14:19.653Z,76.57
2022-08-05T22:16:42.053Z,77.71
2022-08-05T22:20:00.917Z,77.95
2022-08-05T22:22:11.420Z,76.55
2022-08-05T22:24:55.859Z,76.53
2022-08-05T22:28:10.455Z,76.50
2022-08-05T22:30:34.919Z,76.94
2022-08-05T22:33:15.484Z,77.37
2022-08-05T22:35:47.982Z,75.67
2022-08-05T22:38:19.767Z,75.72
2022-08-05T22:40:54.889Z,76.59
2022-08-05T22:43:37.091Z,75.80
2022-08-05T22:46:12.065Z,76.06
2022-08-05T22:48:53.179Z,76.27
2022-08-05T22:52:02.707Z,75.88
2022-08-05T22:54:12.641Z,75.72
2022-08-05T22:56:42.941Z,74.37
2022-08-05T22:59:43.784Z,75.01
2022-08-05T23:02:04.418Z,75.22
2022-08-05T23:04:39.684Z,76.26
2022-08-05T23:07:09.908Z,75.23
2022-08-05T23:09:57.579Z,74.05
2022-08-05T23:12:32.604Z,72.57
2022-08-05T23:15:08.456Z,71.06
2022-08-05T23:18:02.396Z,70.54
2022-08-05T23:20:32.390Z,70.04
2022-08-05T23:23:03.527Z,69.71
2022-08-05T23:25:51.305Z,68.57
2022-08-05T23:28:29.041Z,68.15
2022-08-05T23:31:02.267Z,69.16
2022-08-05T23:34:05.505Z,68.47
2022-08-05T23:36:44.359Z,68.68
2022-08-05T23:39:16.581Z,68.22
2022-08-05T23:41:53.877Z,68.32
2022-08-05T23:44:27.903Z,67.77
2022-08-05T23:47:02.634Z,68.81
2022-08-05T23:49:45.548Z,67.55
2022-08-05T23:52:31.681Z,67.74
2022-08-05T23:55:05.473Z,69.05
2022-08-05T23:57:37.639Z,66.00
